Time;durP1;ratioP1;P1;durP2;ratioP2;P2;SDS_P1;SDS_P2;PMS_P1;PMS_P2;Temp;Humidity;BMP_temperature;BMP_pressure;BME280_temperature;BME280_humidity;BME280_pressure;Samples;Min_cycle;Max_cycle;Signal;HPM_P1;HPM_P2
2023/06/01 00:02:31;;;;;;;;;;;;;;;23.67;42.50;101194.47;2178963;81;52033;-74
2023/06/01 00:05:32;;;;;;;;;;;;;;;23.66;42.43;101192.82;2179030;81;50758;-75
2023/06/01 00:08:34;;;;;;;;;;;;;;;23.67;42.46;101190.42;2154219;81;52550;-75
2023/06/01 00:11:35;;;;;;;;;;;;;;;23.66;42.62;101194.66;2178953;81;51566;-74
2023/06/01 00:14:37;;;;;;;;;;;;;;;23.66;42.74;101188.77;2178960;81;51481;-75
2023/06/01 00:17:39;;;;;;;;;;;;;;;23.67;42.76;101195.00;2178738;81;51542;-75
2023/06/01 00:20:40;;;;;;;;;;;;;;;23.68;42.86;101198.00;2154102;81;52431;-76
2023/06/01 00:23:42;;;;;;;;;;;;;;;23.68;42.81;101194.78;2191255;80;51519;-75
2023/06/01 00:26:44;;;;;;;;;;;;;;;23.67;43.07;101195.83;2193372;80;51647;-74
2023/06/01 00:29:45;;;;;;;;;;;;;;;23.66;43.19;101188.77;2178912;81;51448;-75
2023/06/01 00:32:47;;;;;;;;;;;;;;;23.66;43.32;101187.42;2154244;81;52378;-74
2023/06/01 00:35:49;;;;;;;;;;;;;;;23.67;43.25;101191.77;2178352;81;49979;-74
2023/06/01 00:38:51;;;;;;;;;;;;;;;23.65;43.36;101185.73;2178075;81;51599;-74
2023/06/01 00:41:52;;;;;;;;;;;;;;;23.67;43.29;101186.89;2177391;81;51493;-75
2023/06/01 00:44:54;;;;;;;;;;;;;;;23.67;43.32;101186.37;2178422;80;51032;-77
2023/06/01 00:47:56;;;;;;;;;;;;;;;23.67;43.54;101189.07;2178798;81;51550;-75
2023/06/01 00:50:58;;;;;;;;;;;;;;;23.67;43.67;101189.07;2178849;81;51491;-76
2023/06/01 00:54:00;;;;;;;;;;;;;;;23.67;43.50;101187.72;2178833;81;50774;-75
2023/06/01 00:57:02;;;;;;;;;;;;;;;23.67;43.50;101184.19;2220514;79;51672;-75
2023/06/01 01:00:11;;;;;;;;;;;;;;;23.66;43.87;101188.77;2179058;81;50646;-76
2023/06/01 01:03:13;;;;;;;;;;;;;;;23.67;43.97;101189.07;2177236;80;22870;-75
2023/06/01 01:06:30;;;;;;;;;;;;;;;23.66;43.99;101183.36;2178603;81;22362;-75
2023/06/01 01:09:49;;;;;;;;;;;;;;;23.65;43.99;101187.09;2155236;81;52541;-76
2023/06/01 01:13:02;;;;;;;;;;;;;;;23.67;43.94;101182.31;2179975;81;51532;-74
2023/06/01 01:16:07;;;;;;;;;;;;;;;23.67;43.97;101189.07;2179545;80;51514;-75
2023/06/01 01:19:26;;;;;;;;;;;;;;;23.66;43.90;101184.72;2179399;80;24373;-74
2023/06/01 01:22:35;;;;;;;;;;;;;;;23.67;43.88;101183.66;2179060;81;51516;-75
2023/06/01 01:25:47;;;;;;;;;;;;;;;23.67;44.00;101178.79;2184227;80;50876;-75
2023/06/01 01:28:51;;;;;;;;;;;;;;;23.66;44.01;101180.66;2182328;80;50737;-74
2023/06/01 01:31:52;;;;;;;;;;;;;;;23.67;43.84;101182.31;2177306;80;50706;-75
2023/06/01 01:34:54;;;;;;;;;;;;;;;23.67;44.00;101176.09;2154240;81;52513;-76
2023/06/01 01:37:55;;;;;;;;;;;;;;;23.65;44.06;101176.28;2178770;81;51542;-74
2023/06/01 01:40:57;;;;;;;;;;;;;;;23.66;44.30;101182.51;2178856;81;51623;-74
2023/06/01 01:43:59;;;;;;;;;;;;;;;23.65;44.27;101180.86;2178481;81;51537;-75
2023/06/01 01:47:09;;;;;;;;;;;;;;;23.65;44.31;101176.80;2153792;81;50260;-75
2023/06/01 01:50:10;;;;;;;;;;;;;;;23.64;44.27;101175.98;2176317;80;22649;-73
2023/06/01 01:53:11;;;;;;;;;;;;;;;23.67;44.13;101170.16;2179051;81;50719;-74
2023/06/01 01:56:13;;;;;;;;;;;;;;;23.67;44.24;101168.80;2193749;79;51639;-74
2023/06/01 01:59:15;;;;;;;;;;;;;;;23.66;44.23;101169.86;2178958;81;49566;-74
2023/06/01 02:02:17;;;;;;;;;;;;;;;23.65;44.23;101165.47;2179002;81;50782;-74
2023/06/01 02:05:19;;;;;;;;;;;;;;;23.65;44.25;101162.77;2178818;81;50759;-75
2023/06/01 02:08:21;;;;;;;;;;;;;;;23.64;44.28;101162.47;2178329;81;51375;-74
2023/06/01 02:11:22;;;;;;;;;;;;;;;23.63;44.33;101160.78;2189217;80;51715;-76
2023/06/01 02:14:24;;;;;;;;;;;;;;;23.66;44.14;101164.45;2178951;80;51424;-75
2023/06/01 02:17:26;;;;;;;;;;;;;;;23.65;44.30;101164.12;2178664;81;51546;-74
2023/06/01 02:20:28;;;;;;;;;;;;;;;23.65;44.26;101163.30;2179009;80;50401;-75
2023/06/01 02:23:30;;;;;;;;;;;;;;;23.64;44.37;101159.77;2179029;81;50182;-74
2023/06/01 02:26:31;;;;;;;;;;;;;;;23.63;44.41;101156.73;2171016;79;50466;-76
2023/06/01 02:29:33;;;;;;;;;;;;;;;23.65;44.30;101166.00;2178501;81;51570;-75
2023/06/01 02:32:35;;;;;;;;;;;;;;;23.65;44.28;101160.06;2178544;81;51547;-75
2023/06/01 02:35:36;;;;;;;;;;;;;;;23.64;44.21;101157.06;2178452;81;51695;-75
2023/06/01 02:38:41;;;;;;;;;;;;;;;23.65;44.19;101154.66;2178297;80;50781;-74
2023/06/01 02:41:42;;;;;;;;;;;;;;;23.65;44.24;101162.77;2178533;81;51678;-76
2023/06/01 02:44:44;;;;;;;;;;;;;;;23.66;44.33;101156.84;2178403;81;50249;-74
2023/06/01 02:47:45;;;;;;;;;;;;;;;23.64;44.20;101151.66;2153326;81;52401;-73
2023/06/01 02:50:47;;;;;;;;;;;;;;;23.66;44.44;101156.84;2178663;81;50126;-75
2023/06/01 02:53:49;;;;;;;;;;;;;;;23.64;44.60;101154.89;2179054;81;50825;-73
2023/06/01 02:56:51;;;;;;;;;;;;;;;23.63;44.63;101156.73;2207420;80;51488;-74
2023/06/01 02:59:52;;;;;;;;;;;;;;;23.64;44.54;101158.42;2214878;80;51145;-75
2023/06/01 03:02:54;;;;;;;;;;;;;;;23.64;44.54;101158.42;2214918;79;50385;-76
2023/06/01 03:05:55;;;;;;;;;;;;;;;23.64;44.40;101148.95;2215177;80;50413;-74
2023/06/01 03:08:57;;;;;;;;;;;;;;;23.65;44.54;101151.96;2214964;80;50768;-74
2023/06/01 03:11:59;;;;;;;;;;;;;;;23.67;44.63;101155.30;2214555;80;51418;-75
2023/06/01 03:15:00;;;;;;;;;;;;;;;23.67;44.60;101144.49;2215208;80;50803;-75
2023/06/01 03:18:02;;;;;;;;;;;;;;;23.64;44.68;101153.02;2214965;80;50648;-75
2023/06/01 03:21:04;;;;;;;;;;;;;;;23.61;44.96;101148.02;2215318;80;50385;-74
2023/06/01 03:24:06;;;;;;;;;;;;;;;23.60;44.99;101160.38;2214284;80;51173;-76
2023/06/01 03:27:08;;;;;;;;;;;;;;;23.60;44.97;101155.80;2207967;79;50810;-76
2023/06/01 03:30:10;;;;;;;;;;;;;;;23.61;44.77;101156.13;2222331;80;50157;-75
2023/06/01 03:33:12;;;;;;;;;;;;;;;23.63;44.79;101159.44;2224243;80;50489;-76
2023/06/01 03:36:13;;;;;;;;;;;;;;;23.64;44.79;101161.12;2223853;80;51132;-74
2023/06/01 03:39:16;;;;;;;;;;;;;;;23.61;44.75;101158.83;2222389;80;50378;-75
2023/06/01 03:42:19;;;;;;;;;;;;;;;23.63;44.63;101160.78;2222370;80;50743;-76
2023/06/01 03:45:21;;;;;;;;;;;;;;;23.62;44.76;101159.13;2223231;80;52431;-76
2023/06/01 03:48:22;;;;;;;;;;;;;;;23.63;44.70;101159.44;2223742;80;52726;-75
2023/06/01 03:51:24;;;;;;;;;;;;;;;23.61;44.83;101161.53;2224085;80;51496;-75
2023/06/01 03:54:26;;;;;;;;;;;;;;;23.61;44.88;101161.53;2219898;79;51466;-75
2023/06/01 03:57:27;;;;;;;;;;;;;;;23.63;44.85;101158.08;2190066;79;50323;-74
2023/06/01 04:00:29;;;;;;;;;;;;;;;23.63;44.79;101159.44;2154152;81;52402;-74
2023/06/01 04:03:30;;;;;;;;;;;;;;;23.62;44.79;101156.43;2178497;81;51696;-76
2023/06/01 04:06:35;;;;;;;;;;;;;;;23.63;44.83;101147.80;2178793;81;51441;-74
2023/06/01 04:09:37;;;;;;;;;;;;;;;23.61;44.91;101157.97;2178610;80;22444;-74
2023/06/01 04:12:38;;;;;;;;;;;;;;;23.61;44.84;101146.67;2176458;80;51801;-74
2023/06/01 04:15:40;;;;;;;;;;;;;;;23.61;44.85;101145.81;2211188;80;51465;-75
2023/06/01 04:18:42;;;;;;;;;;;;;;;23.60;44.86;101150.39;2222190;80;51494;-76
2023/06/01 04:21:44;;;;;;;;;;;;;;;23.63;44.76;101152.68;2222373;80;50652;-77
2023/06/01 04:24:45;;;;;;;;;;;;;;;23.62;44.83;101152.91;2224150;79;52528;-75
2023/06/01 04:27:47;;;;;;;;;;;;;;;23.65;44.78;101160.06;2222080;80;50451;-74
2023/06/01 04:30:51;;;;;;;;;;;;;;;23.68;44.83;101162.87;2223777;79;50642;-71
2023/06/01 04:33:52;;;;;;;;;;;;;;;23.65;44.89;101157.36;2225037;79;50842;-72
2023/06/01 04:36:54;;;;;;;;;;;;;;;23.69;44.74;101157.81;2199488;80;49799;-71
2023/06/01 04:39:56;;;;;;;;;;;;;;;23.73;44.06;101160.95;2225367;79;50656;-72
2023/06/01 04:42:57;;;;;;;;;;;;;;;23.66;43.62;101161.75;2196615;79;50352;-74
2023/06/01 04:46:03;;;;;;;;;;;;;;;23.67;43.63;101156.65;2184571;79;50437;-72
2023/06/01 04:49:02;;;;;;;;;;;;;;;23.67;43.68;101159.88;2207290;79;22426;-73
2023/06/01 04:52:04;;;;;;;;;;;;;;;23.66;43.83;101167.65;2209154;79;50750;-74
2023/06/01 04:55:06;;;;;;;;;;;;;;;23.63;44.28;101164.01;2218825;80;50691;-74
2023/06/01 04:58:08;;;;;;;;;;;;;;;23.60;44.67;101163.90;2202894;79;51649;-73
2023/06/01 05:01:15;;;;;;;;;;;;;;;23.63;44.66;101166.71;2206251;78;50093;-74
2023/06/01 05:04:13;;;;;;;;;;;;;;;23.59;44.63;101162.25;2188915;79;22557;-73
2023/06/01 05:07:14;;;;;;;;;;;;;;;23.59;44.59;101167.65;2184011;80;52347;-73
2023/06/01 05:10:16;;;;;;;;;;;;;;;23.57;45.04;101163.48;2178548;81;51451;-73
2023/06/01 05:13:18;;;;;;;;;;;;;;;23.55;44.92;101162.33;2181997;79;51456;-73
2023/06/01 05:16:19;;;;;;;;;;;;;;;23.55;44.81;101165.03;2185766;79;51546;-73
2023/06/01 05:19:21;;;;;;;;;;;;;;;23.57;44.73;101174.30;2178648;81;50681;-73
2023/06/01 05:22:22;;;;;;;;;;;;;;;23.56;44.75;101163.19;2178720;81;50318;-73
2023/06/01 05:25:24;;;;;;;;;;;;;;;23.56;44.65;101164.02;2155105;81;52181;-73
2023/06/01 05:28:26;;;;;;;;;;;;;;;23.58;44.52;101168.70;2178093;81;51375;-73
2023/06/01 05:31:27;;;;;;;;;;;;;;;23.60;44.38;101161.20;2178297;80;51484;-74
2023/06/01 05:34:29;;;;;;;;;;;;;;;23.61;44.29;101166.08;2178423;81;51593;-74
2023/06/01 05:37:31;;;;;;;;;;;;;;;23.58;44.71;101166.00;2178344;81;50251;-74
2023/06/01 05:40:32;;;;;;;;;;;;;;;23.59;44.78;101168.17;2178669;80;50682;-74
2023/06/01 05:43:37;;;;;;;;;;;;;;;23.58;45.07;101169.19;2190180;80;51487;-74
2023/06/01 05:46:38;;;;;;;;;;;;;;;23.57;45.10;101176.47;2178686;81;50728;-74
2023/06/01 05:49:40;;;;;;;;;;;;;;;23.55;45.10;101178.53;2133194;81;51741;-73
2023/06/01 05:52:42;;;;;;;;;;;;;;;23.54;45.17;101178.75;2155682;81;51497;-73
2023/06/01 05:55:44;;;;;;;;;;;;;;;23.54;45.22;101173.35;2178934;81;50621;-73
2023/06/01 05:58:50;;;;;;;;;;;;;;;23.54;45.20;101189.03;2155325;81;50465;-73
2023/06/01 06:01:49;;;;;;;;;;;;;;;23.55;45.40;101185.28;2155761;81;22480;-74
2023/06/01 06:04:50;;;;;;;;;;;;;;;23.57;45.00;101183.22;2178933;81;51603;-74
2023/06/01 06:07:52;;;;;;;;;;;;;;;23.60;44.85;101184.16;2178724;81;51587;-73
2023/06/01 06:10:53;;;;;;;;;;;;;;;23.60;45.15;101176.05;2178775;81;51580;-74
2023/06/01 06:13:55;;;;;;;;;;;;;;;23.62;45.12;101170.46;2176430;79;51234;-74
2023/06/01 06:16:57;;;;;;;;;;;;;;;23.62;45.07;101178.56;2181792;79;50302;-73
2023/06/01 06:19:58;;;;;;;;;;;;;;;23.63;44.81;101179.70;2181191;80;50406;-73
2023/06/01 06:23:00;;;;;;;;;;;;;;;23.64;44.70;101170.57;2185735;80;50812;-73
2023/06/01 06:26:02;;;;;;;;;;;;;;;23.65;44.52;101177.62;2204324;78;50979;-74
2023/06/01 06:29:04;;;;;;;;;;;;;;;23.64;44.17;101176.50;2198811;79;51684;-74
2023/06/01 06:32:06;;;;;;;;;;;;;;;23.64;44.08;101174.62;2184491;79;51590;-74
2023/06/01 06:35:08;;;;;;;;;;;;;;;23.63;44.15;101167.53;2208339;80;51664;-74
2023/06/01 06:38:10;;;;;;;;;;;;;;;23.64;44.16;101171.92;2217288;78;52588;-74
2023/06/01 06:41:11;;;;;;;;;;;;;;;23.64;44.21;101167.05;2215351;80;50427;-73
2023/06/01 06:44:13;;;;;;;;;;;;;;;23.64;44.11;101175.98;2194024;80;50696;-73
2023/06/01 06:47:18;;;;;;;;;;;;;;;23.68;43.52;101179.09;2182010;81;50295;-74
2023/06/01 06:50:18;;;;;;;;;;;;;;;23.84;43.52;101180.61;2180016;79;22339;-72
2023/06/01 06:53:20;;;;;;;;;;;;;;;23.81;43.35;101175.61;2178819;81;50137;-74
2023/06/01 06:56:21;;;;;;;;;;;;;;;23.89;43.43;101174.06;2178992;81;50430;-72
2023/06/01 06:59:23;;;;;;;;;;;;;;;23.98;43.48;101171.49;2178794;81;50542;-74
2023/06/01 07:02:25;;;;;;;;;;;;;;;24.06;43.46;101167.23;2181684;80;51381;-73
2023/06/01 07:05:27;;;;;;;;;;;;;;;24.16;43.41;101175.46;2178942;81;52369;-72
2023/06/01 07:08:28;;;;;;;;;;;;;;;24.19;43.40;101170.45;2178259;81;53434;-72
2023/06/01 07:11:30;;;;;;;;;;;;;;;24.24;43.33;101172.55;2177429;81;50339;-72
2023/06/01 07:14:32;;;;;;;;;;;;;;;24.29;43.28;101172.23;2185717;79;51645;-74
2023/06/01 07:17:33;;;;;;;;;;;;;;;24.30;43.56;101169.00;2214374;79;50460;-72
2023/06/01 07:20:35;;;;;;;;;;;;;;;24.33;43.30;101173.48;2214940;80;50003;-73
2023/06/01 07:23:36;;;;;;;;;;;;;;;24.26;43.59;101174.53;2214638;80;50486;-72
2023/06/01 07:26:38;;;;;;;;;;;;;;;24.26;43.48;101175.87;2214920;78;51675;-74
2023/06/01 07:29:41;;;;;;;;;;;;;;;24.28;43.38;101171.10;2215053;79;51572;-75
2023/06/01 07:32:43;;;;;;;;;;;;;;;24.32;43.26;101173.16;2215142;80;50376;-74
2023/06/01 07:35:45;;;;;;;;;;;;;;;24.32;43.14;101168.27;2215675;79;51569;-74
2023/06/01 07:38:47;;;;;;;;;;;;;;;24.34;42.97;101164.84;2214302;78;51833;-74
2023/06/01 07:41:50;;;;;;;;;;;;;;;24.32;42.99;101170.98;2215760;79;51452;-74
2023/06/01 07:44:51;;;;;;;;;;;;;;;24.32;42.84;101171.80;2211440;79;50338;-74
2023/06/01 07:47:53;;;;;;;;;;;;;;;24.33;42.83;101164.55;2170644;79;50324;-74
2023/06/01 07:50:55;;;;;;;;;;;;;;;24.29;42.74;101165.47;2155373;81;49719;-74
2023/06/01 07:53:57;;;;;;;;;;;;;;;24.28;42.64;101163.81;2178834;81;51602;-75
2023/06/01 07:56:59;;;;;;;;;;;;;;;24.26;42.78;101165.06;2178590;81;50801;-75
2023/06/01 08:00:00;;;;;;;;;;;;;;;24.29;42.66;101166.81;2178738;81;51468;-74
2023/06/01 08:03:07;;;;;;;;;;;;;;;24.30;42.71;101163.09;2154207;81;51684;-74
2023/06/01 08:06:05;;;;;;;;;;;;;;;24.32;42.61;101165.56;2178724;80;23364;-74
2023/06/01 08:09:07;;;;;;;;;;;;;;;24.31;42.61;101158.51;2178685;81;51602;-74
2023/06/01 08:12:11;;;;;;;;;;;;;;;24.32;42.58;101149.34;2154053;81;52654;-75
2023/06/01 08:15:12;;;;;;;;;;;;;;;24.35;42.53;101148.92;2180171;80;22531;-74
2023/06/01 08:18:14;;;;;;;;;;;;;;;24.37;42.46;101152.25;2219479;79;51650;-74
2023/06/01 08:21:17;;;;;;;;;;;;;;;24.37;42.44;101148.72;2222216;80;50787;-74
2023/06/01 08:24:22;;;;;;;;;;;;;;;24.37;42.43;101156.84;2223822;79;51564;-74
2023/06/01 08:27:23;;;;;;;;;;;;;;;24.35;42.42;101154.33;2222282;80;22338;-73
2023/06/01 08:30:27;;;;;;;;;;;;;;;24.33;42.42;101146.97;2222188;79;51582;-74
2023/06/01 08:33:29;;;;;;;;;;;;;;;24.34;42.39;101142.68;2224091;79;50702;-73
2023/06/01 08:36:30;;;;;;;;;;;;;;;24.33;42.39;101136.15;2221872;80;50676;-73
2023/06/01 08:39:32;;;;;;;;;;;;;;;24.34;42.34;101136.45;2223914;80;51246;-75
2023/06/01 08:42:42;;;;;;;;;;;;;;;24.32;42.37;101138.00;2221879;80;50807;-74
2023/06/01 08:45:44;;;;;;;;;;;;;;;24.32;42.35;101140.70;2212558;80;51687;-74
2023/06/01 08:48:46;;;;;;;;;;;;;;;24.31;42.35;101133.64;2206591;80;50043;-74
2023/06/01 08:51:47;;;;;;;;;;;;;;;24.32;42.31;101130.41;2223840;79;49593;-74
2023/06/01 08:54:49;;;;;;;;;;;;;;;24.31;42.30;101136.34;2222412;80;50640;-75
2023/06/01 08:57:51;;;;;;;;;;;;;;;24.32;42.31;101123.65;2221897;79;51605;-73
2023/06/01 09:00:53;;;;;;;;;;;;;;;24.30;42.30;101117.12;2221998;80;51306;-74
2023/06/01 09:03:55;;;;;;;;;;;;;;;24.30;42.31;101123.02;2223499;80;52677;-73
2023/06/01 09:06:57;;;;;;;;;;;;;;;24.30;42.31;101127.08;2222070;80;50487;-74
2023/06/01 09:09:58;;;;;;;;;;;;;;;24.28;42.35;101118.37;2222245;79;50373;-74
2023/06/01 09:13:00;;;;;;;;;;;;;;;24.28;42.32;101115.66;2223909;80;50318;-73
2023/06/01 09:16:02;;;;;;;;;;;;;;;24.26;42.33;101112.33;2214079;80;52586;-74
2023/06/01 09:19:04;;;;;;;;;;;;;;;24.25;42.43;101110.65;2207800;78;51483;-74
2023/06/01 09:22:06;;;;;;;;;;;;;;;24.22;42.44;101118.66;2224040;80;51424;-74
2023/06/01 09:25:07;;;;;;;;;;;;;;;24.22;42.45;101115.95;2222231;80;50375;-74
2023/06/01 09:28:10;;;;;;;;;;;;;;;24.22;42.46;101116.48;2223672;79;52317;-74
2023/06/01 09:31:12;;;;;;;;;;;;;;;24.21;42.55;101109.42;2223669;80;50826;-73
2023/06/01 09:34:19;;;;;;;;;;;;;;;24.19;42.56;101103.39;2223611;80;50452;-73
2023/06/01 09:37:20;;;;;;;;;;;;;;;24.20;42.51;101095.08;2221920;80;50507;-74
2023/06/01 09:40:22;;;;;;;;;;;;;;;24.19;42.49;101100.68;2224000;80;51195;-73
2023/06/01 09:43:25;;;;;;;;;;;;;;;24.21;42.43;101092.67;2222218;80;51405;-74
2023/06/01 09:46:26;;;;;;;;;;;;;;;24.21;42.43;101089.14;2209689;79;51506;-73
2023/06/01 09:49:29;;;;;;;;;;;;;;;24.21;42.43;101085.09;2190289;80;51567;-73
2023/06/01 09:52:30;;;;;;;;;;;;;;;24.20;42.39;101083.41;2178358;81;51303;-73
2023/06/01 09:55:32;;;;;;;;;;;;;;;24.19;42.44;101085.81;2178844;81;50423;-74
2023/06/01 09:58:39;;;;;;;;;;;;;;;24.16;42.46;101086.23;2178221;81;51650;-72
2023/06/01 10:01:37;;;;;;;;;;;;;;;24.15;42.49;101076.44;2178110;81;23380;-73
2023/06/01 10:04:39;;;;;;;;;;;;;;;24.13;42.50;101077.50;2154353;81;52411;-74
2023/06/01 10:07:41;;;;;;;;;;;;;;;24.13;42.52;101084.26;2178605;81;50433;-73
2023/06/01 10:10:44;;;;;;;;;;;;;;;24.10;42.56;101068.45;2178884;81;50311;-74
2023/06/01 10:13:46;;;;;;;;;;;;;;;24.10;42.55;101067.11;2197036;80;50556;-74
2023/06/01 10:16:48;;;;;;;;;;;;;;;24.11;42.53;101062.52;2214381;80;51226;-74
2023/06/01 10:19:50;;;;;;;;;;;;;;;24.09;42.56;101057.31;2222052;79;51525;-74
2023/06/01 10:22:52;;;;;;;;;;;;;;;24.09;42.55;101053.78;2222598;80;51442;-74
2023/06/01 10:25:53;;;;;;;;;;;;;;;24.08;42.59;101057.55;2222378;79;51626;-74
2023/06/01 10:28:55;;;;;;;;;;;;;;;24.09;42.54;101053.78;2221724;80;50246;-74
2023/06/01 10:31:57;;;;;;;;;;;;;;;24.08;42.55;101052.96;2221922;80;51505;-73
2023/06/01 10:34:59;;;;;;;;;;;;;;;24.10;42.53;101047.36;2222110;80;51548;-74
2023/06/01 10:38:16;;;;;;;;;;;;;;;24.08;42.54;101051.61;2221622;79;51622;-74
2023/06/01 10:41:30;;;;;;;;;;;;;;;24.07;42.56;101044.55;2220235;80;22388;-74
2023/06/01 10:44:46;;;;;;;;;;;;;;;24.06;42.55;101044.22;2181992;80;51642;-74
2023/06/01 10:47:48;;;;;;;;;;;;;;;24.05;42.59;101049.33;2178740;81;50310;-75
2023/06/01 10:50:51;;;;;;;;;;;;;;;24.05;42.57;101047.98;2178733;81;51548;-74
2023/06/01 10:53:55;;;;;;;;;;;;;;;24.05;42.60;101044.45;2178853;80;51447;-74
2023/06/01 10:57:14;;;;;;;;;;;;;;;24.05;42.59;101039.88;2178790;81;51443;-73
2023/06/01 11:00:17;;;;;;;;;;;;;;;24.05;42.57;101033.11;2142080;82;50402;-73
2023/06/01 11:03:20;;;;;;;;;;;;;;;24.04;42.61;101038.19;2142225;82;50420;-75
2023/06/01 11:06:26;;;;;;;;;;;;;;;24.04;42.62;101028.73;2116184;82;51865;-74
2023/06/01 11:09:28;;;;;;;;;;;;;;;24.05;42.60;101034.47;2141793;82;50722;-73
2023/06/01 11:12:31;;;;;;;;;;;;;;;24.03;42.61;101031.13;2134676;81;50110;-74
2023/06/01 11:15:33;;;;;;;;;;;;;;;24.03;42.63;101025.73;2177168;81;50286;-73
2023/06/01 11:18:42;;;;;;;;;;;;;;;24.04;42.59;101024.67;2131173;81;52859;-74
2023/06/01 11:21:44;;;;;;;;;;;;;;;24.04;42.59;101019.80;2176380;81;51561;-75
2023/06/01 11:24:46;;;;;;;;;;;;;;;24.05;42.59;101010.66;2169533;81;50291;-75
2023/06/01 11:27:47;;;;;;;;;;;;;;;24.05;42.58;101010.66;2177647;81;50400;-74
2023/06/01 11:30:50;;;;;;;;;;;;;;;24.03;42.61;101008.16;2153538;81;50651;-74
2023/06/01 11:33:53;;;;;;;;;;;;;;;24.04;42.60;101008.98;2187733;80;50212;-74
2023/06/01 11:36:55;;;;;;;;;;;;;;;24.03;42.58;100997.34;2214877;79;50816;-75
2023/06/01 11:39:58;;;;;;;;;;;;;;;24.05;42.59;100995.27;2214803;79;51553;-74
2023/06/01 11:43:00;;;;;;;;;;;;;;;24.05;42.57;100995.27;2214859;78;49731;-75
2023/06/01 11:46:05;;;;;;;;;;;;;;;24.02;42.61;100986.23;2214902;79;51489;-75
2023/06/01 11:49:08;;;;;;;;;;;;;;;24.04;42.61;100988.17;2214873;79;50361;-75
2023/06/01 11:52:10;;;;;;;;;;;;;;;24.04;42.59;100980.59;2214833;79;50715;-74
2023/06/01 11:55:12;;;;;;;;;;;;;;;24.04;42.63;100973.84;2208154;79;50286;-76
2023/06/01 11:58:13;;;;;;;;;;;;;;;24.03;42.64;100983.83;2196314;79;50778;-74
2023/06/01 12:01:15;;;;;;;;;;;;;;;24.03;42.60;100979.77;2178655;81;51287;-75
2023/06/01 12:04:17;;;;;;;;;;;;;;;24.03;42.63;100973.02;2179232;81;51479;-75
2023/06/01 12:07:20;;;;;;;;;;;;;;;24.04;42.60;100980.07;2178572;81;51528;-75
2023/06/01 12:10:22;;;;;;;;;;;;;;;24.03;42.61;100981.65;2178968;81;51496;-75
2023/06/01 12:13:24;;;;;;;;;;;;;;;24.05;42.55;100981.75;2179034;81;50731;-75
2023/06/01 12:16:26;;;;;;;;;;;;;;;24.05;42.58;100973.64;2178744;81;50363;-75
2023/06/01 12:19:28;;;;;;;;;;;;;;;24.04;42.60;100970.61;2178978;81;51541;-75
2023/06/01 12:22:32;;;;;;;;;;;;;;;24.06;42.59;100969.05;2154467;81;52601;-75
2023/06/01 12:25:34;;;;;;;;;;;;;;;24.04;42.62;100967.91;2186605;80;21803;-75
2023/06/01 12:28:51;;;;;;;;;;;;;;;24.05;42.60;100954.72;2206077;79;50302;-75
2023/06/01 12:31:54;;;;;;;;;;;;;;;24.06;42.61;100957.72;2221648;80;50406;-75
2023/06/01 12:35:10;;;;;;;;;;;;;;;24.06;42.59;100956.89;2214319;79;50802;-74
2023/06/01 12:38:12;;;;;;;;;;;;;;;24.06;42.60;100954.19;2168141;80;23326;-74
2023/06/01 12:41:14;;;;;;;;;;;;;;;24.05;42.62;100952.02;2208125;79;50973;-75
2023/06/01 12:44:20;;;;;;;;;;;;;;;24.05;42.61;100947.95;2214976;80;50681;-75
2023/06/01 12:47:21;;;;;;;;;;;;;;;24.05;42.61;100948.48;2185301;79;52544;-75
2023/06/01 12:50:23;;;;;;;;;;;;;;;24.06;42.60;100937.97;2199769;80;49880;-75
2023/06/01 12:53:24;;;;;;;;;;;;;;;24.01;42.78;100941.30;2216718;80;50124;-76
2023/06/01 12:56:26;;;;;;;;;;;;;;;23.98;42.87;100952.55;2199102;80;50505;-75
2023/06/01 12:59:28;;;;;;;;;;;;;;;23.98;42.92;100934.97;2220645;80;49677;-74
2023/06/01 13:02:29;;;;;;;;;;;;;;;23.98;42.95;100932.80;2219737;79;50488;-75
2023/06/01 13:05:31;;;;;;;;;;;;;;;23.98;42.96;100937.68;2204764;80;50392;-76
2023/06/01 13:08:33;;;;;;;;;;;;;;;23.96;43.23;100937.05;2178130;81;50155;-74
2023/06/01 13:11:34;;;;;;;;;;;;;;;23.95;43.41;100925.13;2177772;80;50411;-75
2023/06/01 13:14:36;;;;;;;;;;;;;;;23.97;43.38;100937.88;2171782;80;50599;-75
2023/06/01 13:17:38;;;;;;;;;;;;;;;23.98;43.35;100929.56;2178644;81;51563;-75
2023/06/01 13:20:39;;;;;;;;;;;;;;;24.01;43.24;100934.55;2178953;80;50013;-75
2023/06/01 13:23:42;;;;;;;;;;;;;;;24.03;43.19;100918.95;2223967;80;51688;-75
2023/06/01 13:26:43;;;;;;;;;;;;;;;24.04;43.17;100920.59;2221997;79;51476;-75
2023/06/01 13:29:45;;;;;;;;;;;;;;;24.04;43.20;100922.48;2222286;80;50552;-75
2023/06/01 13:32:47;;;;;;;;;;;;;;;24.06;43.16;100929.86;2219694;80;50783;-75
2023/06/01 13:35:48;;;;;;;;;;;;;;;24.02;43.43;100921.36;2209013;78;51620;-75
2023/06/01 13:38:50;;;;;;;;;;;;;;;24.06;43.29;100915.81;2195894;80;51574;-74
2023/06/01 13:41:51;;;;;;;;;;;;;;;24.08;43.62;100908.33;2200180;78;51551;-75
2023/06/01 13:44:54;;;;;;;;;;;;;;;24.06;43.85;100914.98;2206991;80;51531;-76
2023/06/01 13:47:56;;;;;;;;;;;;;;;24.08;44.12;100911.56;2223821;78;52523;-75
2023/06/01 13:50:58;;;;;;;;;;;;;;;24.09;44.24;100909.97;2223969;79;51499;-74
2023/06/01 13:54:00;;;;;;;;;;;;;;;24.08;44.35;100920.49;2222291;79;50235;-74
2023/06/01 13:57:02;;;;;;;;;;;;;;;24.12;44.20;100904.17;2222043;80;51583;-75
2023/06/01 14:00:05;;;;;;;;;;;;;;;24.10;44.24;100900.84;2223912;80;51788;-75
2023/06/01 14:03:06;;;;;;;;;;;;;;;24.12;44.22;100904.66;2222338;79;51621;-75
2023/06/01 14:06:08;;;;;;;;;;;;;;;24.13;44.14;100894.17;2223878;79;50808;-77
2023/06/01 14:09:10;;;;;;;;;;;;;;;24.15;44.16;100905.61;2224100;80;51485;-76
2023/06/01 14:12:12;;;;;;;;;;;;;;;24.15;44.20;100904.76;2220641;80;50139;-76
2023/06/01 14:15:13;;;;;;;;;;;;;;;24.13;44.24;100895.53;2190550;80;50731;-75
2023/06/01 14:18:15;;;;;;;;;;;;;;;24.15;44.23;100893.95;2178706;81;51540;-76
2023/06/01 14:21:17;;;;;;;;;;;;;;;24.16;44.24;100890.22;2178335;81;51459;-75
2023/06/01 14:24:18;;;;;;;;;;;;;;;24.16;44.29;100896.45;2178310;81;50956;-74
2023/06/01 14:27:20;;;;;;;;;;;;;;;24.17;44.30;100891.86;2178331;81;51488;-74
2023/06/01 14:30:21;;;;;;;;;;;;;;;24.18;44.32;100882.73;2178996;81;51326;-74
2023/06/01 14:33:23;;;;;;;;;;;;;;;24.19;44.32;100878.97;2179487;81;51588;-76
2023/06/01 14:36:24;;;;;;;;;;;;;;;24.20;44.32;100884.17;2157392;81;51784;-75
2023/06/01 14:39:26;;;;;;;;;;;;;;;24.22;44.28;100873.12;2178635;81;49994;-75
2023/06/01 14:42:28;;;;;;;;;;;;;;;24.23;44.30;100872.09;2185470;80;50787;-75
2023/06/01 14:45:29;;;;;;;;;;;;;;;24.21;44.43;100872.30;2187210;79;50413;-74
2023/06/01 14:48:31;;;;;;;;;;;;;;;24.24;44.35;100875.09;2156573;81;52460;-75
2023/06/01 14:51:33;;;;;;;;;;;;;;;24.24;44.37;100869.16;2180950;81;50861;-74
2023/06/01 14:54:34;;;;;;;;;;;;;;;24.25;44.38;100872.19;2179247;81;52273;-75
2023/06/01 14:57:36;;;;;;;;;;;;;;;24.25;44.46;100867.28;2178914;81;51482;-74
2023/06/01 15:00:37;;;;;;;;;;;;;;;24.26;44.46;100871.66;2155709;81;51476;-75
2023/06/01 15:03:39;;;;;;;;;;;;;;;24.28;44.45;100880.39;2182792;81;50254;-74
2023/06/01 15:06:40;;;;;;;;;;;;;;;24.28;44.49;100868.22;2178442;81;50843;-75
2023/06/01 15:09:42;;;;;;;;;;;;;;;24.28;44.48;100873.10;2178491;81;50721;-75
2023/06/01 15:12:44;;;;;;;;;;;;;;;24.30;44.48;100868.81;2188598;79;51670;-75
2023/06/01 15:15:45;;;;;;;;;;;;;;;24.29;44.48;100861.76;2183592;80;51492;-74
2023/06/01 15:18:47;;;;;;;;;;;;;;;24.29;44.55;100852.29;2178588;81;51624;-75
2023/06/01 15:21:48;;;;;;;;;;;;;;;24.31;44.53;100862.38;2178718;81;50392;-74
2023/06/01 15:24:50;;;;;;;;;;;;;;;24.31;44.54;100854.27;2178252;81;50909;-74
2023/06/01 15:27:51;;;;;;;;;;;;;;;24.32;44.64;100851.85;2178090;81;50329;-75
2023/06/01 15:30:53;;;;;;;;;;;;;;;24.34;44.52;100843.01;2178784;81;50431;-75
2023/06/01 15:33:55;;;;;;;;;;;;;;;24.31;44.65;100845.62;2178829;81;51742;-75
2023/06/01 15:36:56;;;;;;;;;;;;;;;24.33;44.63;100850.30;2178008;81;51689;-75